Time;durP1;ratioP1;P1;durP2;ratioP2;P2;SDS_P1;SDS_P2;PMS_P1;PMS_P2;Temp;Humidity;BMP_temperature;BMP_pressure;BME280_temperature;BME280_humidity;BME280_pressure;Samples;Min_cycle;Max_cycle;Signal;HPM_P1;HPM_P2
2023/11/12 00:00:54;;;;;;;18.77;14.03;;;;;21.80;99497.00;;;;2068132;28;20214;-63
2023/11/12 00:01:54;;;;;;;21.67;15.57;;;;;21.80;99499.00;;;;2073927;28;20214;-63
2023/11/12 00:02:54;;;;;;;19.60;15.90;;;;;21.80;99492.00;;;;2062451;28;20214;-63
2023/11/12 00:03:56;;;;;;;21.40;15.67;;;;;21.80;99506.00;;;;2070309;28;20211;-63
2023/11/12 00:04:56;;;;;;;20.20;15.65;;;;;21.70;99502.00;;;;2055101;28;20625;-63
2023/11/12 00:05:57;;;;;;;21.20;15.40;;;;;21.80;99499.00;;;;2066937;28;20236;-63
2023/11/12 00:06:57;;;;;;;20.07;14.80;;;;;21.80;99494.00;;;;2072071;28;20210;-63
2023/11/12 00:07:57;;;;;;;17.63;14.00;;;;;21.80;99497.00;;;;2062614;28;20214;-63
2023/11/12 00:08:58;;;;;;;20.10;14.30;;;;;21.80;99499.00;;;;2070244;28;20294;-63
2023/11/12 00:09:58;;;;;;;18.27;14.40;;;;;21.80;99500.00;;;;2072144;28;20218;-63
2023/11/12 00:10:58;;;;;;;17.77;14.40;;;;;21.80;99499.00;;;;2074251;28;20244;-63
2023/11/12 00:11:59;;;;;;;19.60;12.83;;;;;21.70;99488.00;;;;2075107;28;20631;-63
2023/11/12 00:12:59;;;;;;;16.93;13.17;;;;;21.80;99492.00;;;;2060459;28;20728;-63
2023/11/12 00:13:59;;;;;;;17.60;14.20;;;;;21.70;99486.00;;;;2076918;28;20276;-63
2023/11/12 00:15:00;;;;;;;17.17;13.60;;;;;21.70;99496.00;;;;2073795;28;20281;-63
2023/11/12 00:16:00;;;;;;;15.00;12.40;;;;;21.70;99486.00;;;;2069690;28;20249;-63
2023/11/12 00:17:00;;;;;;;15.40;11.67;;;;;21.70;99489.00;;;;2071392;28;20214;-69
2023/11/12 00:18:01;;;;;;;19.10;12.87;;;;;21.80;99498.00;;;;2061759;28;20214;-63
2023/11/12 00:19:04;;;;;;;15.13;11.83;;;;;21.80;99490.00;;;;2071561;28;20300;-63
2023/11/12 00:20:05;;;;;;;14.45;11.55;;;;;21.80;99491.00;;;;2070989;28;20234;-63
2023/11/12 00:21:05;;;;;;;14.77;11.95;;;;;21.80;99495.00;;;;2070325;28;20293;-63
2023/11/12 00:22:06;;;;;;;14.47;12.23;;;;;21.70;99496.00;;;;2072133;28;20214;-63
2023/11/12 00:23:08;;;;;;;15.70;12.53;;;;;21.70;99483.00;;;;2061950;28;20294;-63
2023/11/12 00:24:11;;;;;;;14.85;12.00;;;;;21.70;99485.00;;;;2072127;28;20461;-63
2023/11/12 00:25:13;;;;;;;15.07;11.48;;;;;21.70;99486.00;;;;2071485;28;20214;-63
2023/11/12 00:26:13;;;;;;;17.38;12.18;;;;;21.70;99487.00;;;;2072130;28;20593;-63
2023/11/12 00:27:13;;;;;;;15.40;12.03;;;;;21.60;99483.00;;;;2070599;28;20226;-63
2023/11/12 00:28:14;;;;;;;16.20;10.60;;;;;21.60;99486.00;;;;2059581;28;20278;-63
2023/11/12 00:29:14;;;;;;;14.33;11.50;;;;;21.60;99482.00;;;;2070726;28;20218;-63
2023/11/12 00:30:15;;;;;;;14.00;10.30;;;;;21.60;99476.00;;;;2064409;28;20686;-63
2023/11/12 00:31:15;;;;;;;13.67;11.23;;;;;21.60;99476.00;;;;2071578;28;20317;-63
2023/11/12 00:32:15;;;;;;;13.53;10.33;;;;;21.60;99486.00;;;;2070505;28;21155;-63
2023/11/12 00:33:16;;;;;;;15.70;11.63;;;;;21.50;99478.00;;;;2062035;28;20751;-63
2023/11/12 00:34:16;;;;;;;17.13;10.90;;;;;21.60;99473.00;;;;2071140;28;20636;-63
2023/11/12 00:35:16;;;;;;;13.50;10.80;;;;;21.60;99484.00;;;;2062110;28;20234;-63
2023/11/12 00:36:17;;;;;;;14.60;10.20;;;;;21.60;99476.00;;;;2071916;28;20249;-63
2023/11/12 00:37:18;;;;;;;12.27;9.97;;;;;21.60;99481.00;;;;2067072;28;20222;-63
2023/11/12 00:38:18;;;;;;;11.55;9.82;;;;;21.60;99484.00;;;;2062433;28;20230;-63
2023/11/12 00:39:19;;;;;;;11.07;9.27;;;;;21.60;99468.00;;;;2071660;28;20245;-63
2023/11/12 00:40:19;;;;;;;15.17;10.13;;;;;21.60;99470.00;;;;2072542;28;20223;-63
2023/11/12 00:41:19;;;;;;;14.00;9.77;;;;;21.60;99466.00;;;;2071968;28;20222;-63
2023/11/12 00:42:20;;;;;;;12.33;9.60;;;;;21.60;99471.00;;;;2069582;28;20254;-63
2023/11/12 00:43:26;;;;;;;9.80;8.47;;;;;21.60;99467.00;;;;2064745;28;21038;-63
2023/11/12 00:44:27;;;;;;;13.43;9.25;;;;;21.50;99469.00;;;;2072621;28;20221;-63
2023/11/12 00:45:29;;;;;;;13.80;9.40;;;;;21.50;99473.00;;;;2071832;28;20717;-63
2023/11/12 00:46:30;;;;;;;11.82;9.25;;;;;21.50;99474.00;;;;2071230;28;20218;-63
2023/11/12 00:47:30;;;;;;;11.70;9.05;;;;;21.50;99472.00;;;;2072092;28;20219;-63
2023/11/12 00:48:31;;;;;;;11.87;9.30;;;;;21.50;99479.00;;;;2061326;28;20785;-63
2023/11/12 00:49:32;;;;;;;9.70;8.70;;;;;21.50;99469.00;;;;2063342;28;20702;-63
2023/11/12 00:50:32;;;;;;;9.93;8.93;;;;;21.50;99470.00;;;;2065108;28;20837;-63
2023/11/12 00:51:33;;;;;;;11.60;8.33;;;;;21.50;99467.00;;;;2071310;28;20213;-63
2023/11/12 00:52:33;;;;;;;11.47;8.80;;;;;21.50;99467.00;;;;2071960;28;20215;-63
2023/11/12 00:53:33;;;;;;;12.87;9.30;;;;;21.50;99476.00;;;;2061348;28;20485;-63
2023/11/12 00:54:34;;;;;;;9.17;8.17;;;;;21.50;99466.00;;;;2072927;28;20210;-63
2023/11/12 00:55:34;;;;;;;14.13;8.80;;;;;21.50;99477.00;;;;2072778;28;20206;-63
2023/11/12 00:56:35;;;;;;;11.40;8.33;;;;;21.50;99468.00;;;;2071858;28;20474;-63
2023/11/12 00:57:35;;;;;;;11.60;7.80;;;;;21.50;99474.00;;;;2072502;28;20697;-63
2023/11/12 00:58:35;;;;;;;11.30;8.60;;;;;21.50;99470.00;;;;2065040;28;20214;-63
2023/11/12 00:59:36;;;;;;;10.53;8.17;;;;;21.50;99468.00;;;;2071302;28;20631;-63
2023/11/12 01:00:37;;;;;;;10.50;8.33;;;;;21.50;99467.00;;;;2071376;28;20559;-63
2023/11/12 01:01:37;;;;;;;8.60;7.70;;;;;21.50;99461.00;;;;2072264;28;20218;-63
2023/11/12 01:02:37;;;;;;;8.80;7.90;;;;;21.50;99468.00;;;;2072058;28;20681;-63
2023/11/12 01:03:38;;;;;;;9.10;7.67;;;;;21.50;99468.00;;;;2065446;28;20236;-63
2023/11/12 01:04:38;;;;;;;10.50;7.60;;;;;21.50;99471.00;;;;2072171;28;20639;-63
2023/11/12 01:05:38;;;;;;;9.20;7.87;;;;;21.50;99470.00;;;;2071005;28;20993;-63
2023/11/12 01:06:39;;;;;;;10.60;7.90;;;;;21.50;99462.00;;;;2071980;28;20752;-63
2023/11/12 01:07:39;;;;;;;9.57;7.60;;;;;21.50;99465.00;;;;2071664;28;20745;-63
2023/11/12 01:08:39;;;;;;;9.60;7.90;;;;;21.50;99461.00;;;;2062650;28;20222;-63
2023/11/12 01:09:40;;;;;;;8.90;8.00;;;;;21.40;99461.00;;;;2072355;28;20637;-63
2023/11/12 01:10:40;;;;;;;9.03;7.20;;;;;21.40;99455.00;;;;2069284;28;20214;-63
2023/11/12 01:11:40;;;;;;;8.13;6.97;;;;;21.40;99448.00;;;;2066712;28;20215;-63
2023/11/12 01:12:41;;;;;;;8.70;7.27;;;;;21.40;99448.00;;;;2071709;28;20210;-63
2023/11/12 01:13:41;;;;;;;8.90;7.40;;;;;21.50;99451.00;;;;2045468;28;20223;-63
2023/11/12 01:14:42;;;;;;;8.80;6.30;;;;;21.40;99456.00;;;;2063145;28;20306;-63
2023/11/12 01:15:43;;;;;;;8.60;7.00;;;;;21.40;99448.00;;;;2071510;28;20264;-63
2023/11/12 01:16:43;;;;;;;7.90;6.90;;;;;21.40;99448.00;;;;2072518;28;20253;-63
2023/11/12 01:17:46;;;;;;;9.50;6.57;;;;;21.40;99450.00;;;;2071470;28;20206;-63
2023/11/12 01:18:47;;;;;;;8.23;7.03;;;;;21.40;99446.00;;;;2069864;28;20218;-63
2023/11/12 01:19:47;;;;;;;7.80;7.00;;;;;21.40;99450.00;;;;2070894;28;20268;-63
2023/11/12 01:20:48;;;;;;;8.20;6.37;;;;;21.40;99444.00;;;;2072232;28;20297;-63
2023/11/12 01:21:48;;;;;;;9.00;6.87;;;;;21.40;99447.00;;;;2071971;28;20221;-62
2023/11/12 01:22:48;;;;;;;7.30;6.60;;;;;21.40;99444.00;;;;2061732;28;20218;-62
2023/11/12 01:23:49;;;;;;;8.50;7.00;;;;;21.40;99440.00;;;;2071887;28;20276;-62
2023/11/12 01:24:49;;;;;;;8.50;6.60;;;;;21.40;99449.00;;;;2070871;28;20234;-62
2023/11/12 01:25:49;;;;;;;7.30;5.87;;;;;21.40;99449.00;;;;2071817;28;20229;-62
2023/11/12 01:26:50;;;;;;;8.40;6.70;;;;;21.40;99447.00;;;;2070591;28;20304;-62
2023/11/12 01:27:50;;;;;;;7.70;6.00;;;;;21.40;99442.00;;;;2062063;28;20684;-62
2023/11/12 01:28:50;;;;;;;7.20;5.60;;;;;21.40;99446.00;;;;2071917;28;20637;-62
2023/11/12 01:29:51;;;;;;;8.70;6.40;;;;;21.40;99445.00;;;;2071096;28;20689;-62
2023/11/12 01:30:51;;;;;;;6.67;5.97;;;;;21.40;99444.00;;;;2072037;28;20214;-62
2023/11/12 01:31:51;;;;;;;7.57;5.90;;;;;21.40;99453.00;;;;2070800;28;20256;-62
2023/11/12 01:32:52;;;;;;;9.13;5.90;;;;;21.40;99446.00;;;;2062203;28;20226;-62
2023/11/12 01:33:52;;;;;;;7.87;5.90;;;;;21.40;99446.00;;;;2071041;28;20256;-62
2023/11/12 01:34:52;;;;;;;7.23;5.83;;;;;21.40;99438.00;;;;2071696;28;20229;-62
2023/11/12 01:35:53;;;;;;;7.27;5.80;;;;;21.40;99449.00;;;;2071124;28;20214;-62
2023/11/12 01:36:54;;;;;;;8.40;5.83;;;;;21.40;99439.00;;;;2070411;28;20570;-62
2023/11/12 01:37:54;;;;;;;8.17;5.90;;;;;21.40;99444.00;;;;2062264;28;20320;-62
2023/11/12 01:38:55;;;;;;;7.50;5.90;;;;;21.40;99448.00;;;;2070875;28;20674;-62
2023/11/12 01:39:55;;;;;;;7.17;5.90;;;;;21.40;99447.00;;;;2071778;28;20685;-62
2023/11/12 01:41:02;;;;;;;6.93;6.03;;;;;21.40;99432.00;;;;2070969;28;20741;-62
2023/11/12 01:42:09;;;;;;;6.75;5.50;;;;;21.40;99445.00;;;;2072005;28;20305;-62
2023/11/12 01:43:10;;;;;;;7.00;5.53;;;;;21.30;99443.00;;;;2062150;28;20601;-62
2023/11/12 01:44:10;;;;;;;7.47;6.03;;;;;21.40;99449.00;;;;2071051;28;20214;-62
2023/11/12 01:45:11;;;;;;;7.50;6.00;;;;;21.30;99451.00;;;;2071626;28;20229;-62
2023/11/12 01:46:12;;;;;;;6.57;5.40;;;;;21.30;99455.00;;;;2069236;28;20284;-62
2023/11/12 01:47:12;;;;;;;6.20;5.37;;;;;21.30;99442.00;;;;2071916;28;20791;-62
2023/11/12 01:48:13;;;;;;;6.63;5.40;;;;;21.30;99446.00;;;;2060937;28;20500;-62
2023/11/12 01:49:13;;;;;;;6.40;5.63;;;;;21.30;99447.00;;;;2062232;28;20223;-62
2023/11/12 01:50:14;;;;;;;6.83;5.63;;;;;21.30;99449.00;;;;2071120;28;20503;-62
2023/11/12 01:51:14;;;;;;;5.80;5.20;;;;;21.30;99428.00;;;;2066700;28;20261;-62
2023/11/12 01:52:14;;;;;;;6.80;5.33;;;;;21.30;99452.00;;;;2061729;28;20223;-62
2023/11/12 01:53:16;;;;;;;6.27;4.93;;;;;21.30;99461.00;;;;2044562;28;20344;-62
2023/11/12 01:54:16;;;;;;;7.97;5.20;;;;;21.30;99453.00;;;;2062672;28;20233;-62
2023/11/12 01:55:17;;;;;;;7.30;4.87;;;;;21.30;99450.00;;;;2062113;28;20229;-62
2023/11/12 01:56:17;;;;;;;6.47;5.70;;;;;21.30;99455.00;;;;2070691;28;20217;-62
2023/11/12 01:57:18;;;;;;;5.50;4.47;;;;;21.30;99450.00;;;;2071199;28;20214;-62
2023/11/12 01:58:18;;;;;;;6.50;5.00;;;;;21.30;99454.00;;;;2061357;28;20211;-62
2023/11/12 01:59:19;;;;;;;5.90;5.30;;;;;21.30;99446.00;;;;2071811;28;20496;-62
2023/11/12 02:00:20;;;;;;;6.20;5.10;;;;;21.30;99448.00;;;;2070697;28;20218;-62
2023/11/12 02:01:20;;;;;;;8.57;5.47;;;;;21.30;99448.00;;;;2071155;28;20276;-62
2023/11/12 02:02:20;;;;;;;5.97;4.80;;;;;21.30;99457.00;;;;2070897;28;20266;-62
2023/11/12 02:03:21;;;;;;;6.63;4.63;;;;;21.30;99447.00;;;;2060555;28;20222;-62
2023/11/12 02:04:21;;;;;;;5.67;4.70;;;;;21.30;99445.00;;;;2062794;28;20744;-62
2023/11/12 02:05:23;;;;;;;6.20;4.93;;;;;21.30;99449.00;;;;2069727;28;20222;-62
2023/11/12 02:06:24;;;;;;;6.40;4.90;;;;;21.20;99450.00;;;;2070928;28;20285;-62
2023/11/12 02:07:25;;;;;;;5.57;4.72;;;;;21.20;99444.00;;;;2069914;28;20222;-62
2023/11/12 02:08:25;;;;;;;5.50;4.80;;;;;21.30;99446.00;;;;2062062;28;20679;-62
2023/11/12 02:09:26;;;;;;;6.13;4.70;;;;;21.20;99453.00;;;;2070986;28;20222;-62
2023/11/12 02:10:28;;;;;;;4.90;4.37;;;;;21.20;99445.00;;;;2069462;28;20214;-62
2023/11/12 02:11:29;;;;;;;7.13;5.45;;;;;21.20;99430.00;;;;2079163;28;20746;-62
2023/11/12 02:12:29;;;;;;;4.83;4.23;;;;;21.30;99438.00;;;;2075419;28;20218;-62
2023/11/12 02:13:29;;;;;;;5.03;4.53;;;;;21.30;99436.00;;;;2062324;28;20298;-62
2023/11/12 02:14:31;;;;;;;6.20;5.07;;;;;21.20;99440.00;;;;2069737;28;20735;-62
2023/11/12 02:15:32;;;;;;;5.57;4.00;;;;;21.20;99438.00;;;;2070758;28;20221;-62
2023/11/12 02:16:32;;;;;;;6.77;4.83;;;;;21.20;99434.00;;;;2071623;28;21109;-62
2023/11/12 02:17:33;;;;;;;6.20;4.40;;;;;21.20;99448.00;;;;2070597;28;20828;-62
2023/11/12 02:18:33;;;;;;;5.20;4.50;;;;;21.20;99448.00;;;;2053069;28;20682;-62
2023/11/12 02:19:34;;;;;;;6.03;4.43;;;;;21.30;99449.00;;;;2062382;28;20879;-62
2023/11/12 02:20:34;;;;;;;5.77;4.90;;;;;21.20;99446.00;;;;2071686;28;20227;-62
2023/11/12 02:21:35;;;;;;;4.93;4.20;;;;;21.20;99446.00;;;;2071451;28;20222;-62
2023/11/12 02:22:35;;;;;;;4.80;4.30;;;;;21.20;99453.00;;;;2064977;28;20570;-62
2023/11/12 02:23:37;;;;;;;4.97;4.47;;;;;21.20;99453.00;;;;2061080;28;20253;-62
2023/11/12 02:24:38;;;;;;;4.82;4.32;;;;;21.20;99456.00;;;;2064967;28;20226;-62
2023/11/12 02:25:38;;;;;;;5.10;4.00;;;;;21.20;99450.00;;;;2070781;28;20222;-62
2023/11/12 02:26:38;;;;;;;4.70;4.20;;;;;21.20;99449.00;;;;2071287;28;20357;-62
2023/11/12 02:27:39;;;;;;;4.90;4.30;;;;;21.20;99457.00;;;;2069158;28;20268;-62
2023/11/12 02:28:39;;;;;;;5.03;3.50;;;;;21.20;99458.00;;;;2054778;28;20219;-62
2023/11/12 02:29:47;;;;;;;4.73;4.23;;;;;21.20;99461.00;;;;2070930;28;20218;-62
2023/11/12 02:30:47;;;;;;;5.20;4.15;;;;;21.20;99461.00;;;;2071651;28;20234;-62
2023/11/12 02:31:48;;;;;;;4.47;3.90;;;;;21.20;99456.00;;;;2070841;28;20842;-62
2023/11/12 02:32:48;;;;;;;4.70;4.30;;;;;21.20;99452.00;;;;2062069;28;20223;-62
2023/11/12 02:33:49;;;;;;;4.20;3.70;;;;;21.20;99455.00;;;;2070224;28;20218;-62
2023/11/12 02:34:49;;;;;;;4.93;3.77;;;;;21.20;99458.00;;;;2070815;28;20214;-62
2023/11/12 02:35:49;;;;;;;5.50;4.97;;;;;21.20;99450.00;;;;2071186;28;20686;-62
2023/11/12 02:36:50;;;;;;;6.63;4.37;;;;;21.20;99424.00;;;;2071018;28;20704;-62
2023/11/12 02:37:50;;;;;;;5.03;3.70;;;;;21.20;99448.00;;;;2061821;28;20242;-62
2023/11/12 02:38:51;;;;;;;4.33;3.93;;;;;21.10;99456.00;;;;2070550;28;20211;-62
2023/11/12 02:39:52;;;;;;;4.47;4.05;;;;;21.20;99454.00;;;;2071591;28;20579;-62
2023/11/12 02:40:52;;;;;;;5.63;4.13;;;;;21.20;99468.00;;;;2070810;28;20249;-62
2023/11/12 02:41:54;;;;;;;5.10;4.50;;;;;21.20;99456.00;;;;2071721;28;20226;-62
2023/11/12 02:42:55;;;;;;;4.57;4.18;;;;;21.20;99455.00;;;;2061642;28;20222;-62
2023/11/12 02:43:55;;;;;;;5.30;3.90;;;;;21.20;99453.00;;;;2070126;28;20218;-62
2023/11/12 02:44:59;;;;;;;4.30;3.43;;;;;21.20;99454.00;;;;2071344;28;20264;-62
2023/11/12 02:46:00;;;;;;;4.10;3.53;;;;;21.20;99453.00;;;;2070259;28;20690;-62
2023/11/12 02:47:00;;;;;;;4.60;3.80;;;;;21.20;99464.00;;;;2071525;28;20245;-62
2023/11/12 02:48:01;;;;;;;4.00;3.60;;;;;21.20;99454.00;;;;2060027;28;20214;-62
2023/11/12 02:49:07;;;;;;;4.05;3.60;;;;;21.10;99448.00;;;;2070824;28;20218;-62
2023/11/12 02:50:32;;;;;;;5.13;3.53;;;;;21.10;99451.00;;;;2070821;28;20921;-62
2023/11/12 02:51:33;;;;;;;4.60;4.20;;;;;21.10;99447.00;;;;2070236;28;20226;-62
2023/11/12 02:52:33;;;;;;;3.70;3.20;;;;;21.10;99456.00;;;;2072789;28;20273;-62
2023/11/12 02:53:33;;;;;;;5.10;3.50;;;;;21.10;99452.00;;;;2062568;28;20214;-62
2023/11/12 02:54:35;;;;;;;5.90;3.70;;;;;21.10;99455.00;;;;2072966;28;20219;-62
2023/11/12 02:55:36;;;;;;;3.88;3.42;;;;;21.10;99457.00;;;;2071933;28;20643;-62
2023/11/12 02:56:36;;;;;;;4.50;3.70;;;;;21.10;99451.00;;;;2072900;28;20210;-62
2023/11/12 02:57:36;;;;;;;3.97;3.40;;;;;21.10;99450.00;;;;2072110;28;20473;-62
2023/11/12 02:58:37;;;;;;;7.10;2.90;;;;;21.10;99429.00;;;;2063340;28;20686;-62
2023/11/12 02:59:37;;;;;;;3.90;3.40;;;;;21.10;99445.00;;;;2063838;28;20215;-62
2023/11/12 03:00:37;;;;;;;4.00;3.47;;;;;21.10;99445.00;;;;2063538;28;20215;-62
2023/11/12 03:01:38;;;;;;;4.57;3.50;;;;;21.10;99451.00;;;;2073034;28;20218;-62
2023/11/12 03:02:38;;;;;;;4.77;4.13;;;;;21.10;99452.00;;;;2077386;28;20272;-62
2023/11/12 03:03:38;;;;;;;6.83;3.47;;;;;21.10;99429.00;;;;2070376;28;20230;-62
2023/11/12 03:04:39;;;;;;;3.73;3.37;;;;;21.10;99449.00;;;;2071185;28;20640;-62
2023/11/12 03:05:39;;;;;;;6.23;3.60;;;;;21.10;99449.00;;;;2072168;28;20226;-62
2023/11/12 03:06:39;;;;;;;5.77;4.20;;;;;21.10;99455.00;;;;2072822;28;20214;-62
2023/11/12 03:07:41;;;;;;;4.30;3.67;;;;;21.10;99448.00;;;;2072229;28;20221;-62
2023/11/12 03:08:41;;;;;;;3.30;3.00;;;;;21.10;99444.00;;;;2063304;28;20214;-62
2023/11/12 03:09:41;;;;;;;4.10;3.40;;;;;21.10;99453.00;;;;2072180;28;20210;-62
2023/11/12 03:10:42;;;;;;;4.77;3.53;;;;;21.10;99448.00;;;;2072978;28;20218;-62
2023/11/12 03:11:43;;;;;;;5.53;3.50;;;;;21.10;99447.00;;;;2071999;28;20203;-62
2023/11/12 03:12:43;;;;;;;5.32;4.05;;;;;21.10;99446.00;;;;2058204;28;20223;-62
2023/11/12 03:13:44;;;;;;;4.50;2.80;;;;;21.10;99450.00;;;;2054276;28;20298;-62
2023/11/12 03:14:44;;;;;;;4.27;3.57;;;;;21.10;99451.00;;;;2066744;28;20214;-62
2023/11/12 03:15:44;;;;;;;4.27;3.87;;;;;21.10;99448.00;;;;2072056;28;20222;-62
2023/11/12 03:16:47;;;;;;;4.50;3.20;;;;;21.10;99456.00;;;;2062900;28;20678;-62
2023/11/12 03:17:48;;;;;;;4.20;3.53;;;;;21.10;99446.00;;;;2054416;28;20810;-62
2023/11/12 03:18:50;;;;;;;6.00;3.90;;;;;21.10;99459.00;;;;2072252;28;20214;-62
2023/11/12 03:19:50;;;;;;;5.15;3.10;;;;;21.10;99454.00;;;;2072786;28;20484;-62
2023/11/12 03:20:51;;;;;;;5.23;3.60;;;;;21.00;99460.00;;;;2070304;28;20244;-62
2023/11/12 03:21:52;;;;;;;5.20;3.13;;;;;21.00;99453.00;;;;2073899;28;20240;-62
2023/11/12 03:22:53;;;;;;;6.45;3.45;;;;;21.10;99451.00;;;;2059767;28;20214;-62
2023/11/12 03:23:55;;;;;;;3.93;3.33;;;;;21.10;99418.00;;;;2067459;28;20230;-62
2023/11/12 03:24:55;;;;;;;3.42;3.00;;;;;21.10;99448.00;;;;2072632;28;20453;-62
2023/11/12 03:25:56;;;;;;;4.27;3.37;;;;;21.10;99452.00;;;;2072176;28;20245;-62
2023/11/12 03:26:56;;;;;;;4.00;3.47;;;;;21.10;99448.00;;;;2074984;28;20213;-62
2023/11/12 03:27:56;;;;;;;4.17;2.57;;;;;21.10;99445.00;;;;2063315;28;20214;-62
2023/11/12 03:28:56;;;;;;;4.10;3.63;;;;;21.10;99449.00;;;;2072096;28;20214;-62
2023/11/12 03:29:57;;;;;;;4.53;3.37;;;;;21.00;99438.00;;;;2072863;28;20214;-62
2023/11/12 03:30:57;;;;;;;3.73;3.23;;;;;21.00;99441.00;;;;2072128;28;20226;-62
2023/11/12 03:31:58;;;;;;;4.20;2.87;;;;;21.00;99438.00;;;;2072914;28;20242;-62
2023/11/12 03:32:58;;;;;;;3.63;3.23;;;;;21.00;99437.00;;;;2062204;28;20434;-62
2023/11/12 03:34:00;;;;;;;4.83;3.30;;;;;21.00;99439.00;;;;2071859;28;20249;-62
2023/11/12 03:35:01;;;;;;;6.40;3.10;;;;;21.10;99441.00;;;;2072584;28;20716;-63
2023/11/12 03:36:02;;;;;;;3.43;2.87;;;;;21.00;99439.00;;;;2068748;28;20283;-63
2023/11/12 03:37:03;;;;;;;3.85;3.38;;;;;21.00;99430.00;;;;2069209;28;20221;-63
2023/11/12 03:38:03;;;;;;;3.40;3.10;;;;;21.00;99437.00;;;;2061877;28;20753;-63
2023/11/12 03:39:04;;;;;;;4.70;3.37;;;;;21.00;99434.00;;;;2072562;28;20237;-63
2023/11/12 03:40:05;;;;;;;3.87;3.00;;;;;21.00;99439.00;;;;2072646;28;20222;-63
2023/11/12 03:41:05;;;;;;;4.40;3.43;;;;;21.00;99439.00;;;;2071800;28;20297;-63
2023/11/12 03:42:05;;;;;;;3.93;3.13;;;;;21.00;99430.00;;;;2072722;28;20456;-63
2023/11/12 03:43:06;;;;;;;3.50;3.20;;;;;21.00;99439.00;;;;2064344;28;20226;-63
2023/11/12 03:44:07;;;;;;;3.50;3.17;;;;;21.00;99432.00;;;;2074702;28;20257;-63
2023/11/12 03:45:08;;;;;;;3.60;2.83;;;;;21.00;99431.00;;;;2072191;28;20238;-63
2023/11/12 03:46:09;;;;;;;4.85;3.20;;;;;21.00;99393.00;;;;2074549;28;20641;-63
2023/11/12 03:47:10;;;;;;;3.90;3.50;;;;;21.00;99431.00;;;;2072482;28;20218;-63
2023/11/12 03:48:10;;;;;;;3.10;2.60;;;;;21.00;99432.00;;;;2062146;28;20477;-63
2023/11/12 03:49:11;;;;;;;4.00;3.27;;;;;21.00;99421.00;;;;2072681;28;20456;-63
2023/11/12 03:50:12;;;;;;;3.80;3.00;;;;;21.00;99424.00;;;;2073740;28;20217;-63
2023/11/12 03:51:12;;;;;;;3.97;3.00;;;;;21.00;99422.00;;;;2074204;28;20214;-63
2023/11/12 03:52:12;;;;;;;4.40;3.57;;;;;21.00;99425.00;;;;2072528;28;20206;-63
2023/11/12 03:53:13;;;;;;;4.93;3.30;;;;;21.00;99428.00;;;;2062332;28;20258;-63
2023/11/12 03:54:14;;;;;;;3.10;2.80;;;;;21.00;99428.00;;;;2072346;28;20264;-63
2023/11/12 03:55:14;;;;;;;3.70;3.03;;;;;21.00;99398.00;;;;2071818;28;20203;-63
2023/11/12 03:56:15;;;;;;;4.67;2.97;;;;;21.00;99427.00;;;;2072419;28;20210;-63
2023/11/12 03:57:17;;;;;;;3.03;2.73;;;;;21.00;99439.00;;;;2071704;28;20198;-62
2023/11/12 03:58:19;;;;;;;4.65;3.28;;;;;21.00;99434.00;;;;2062914;28;20222;-62
2023/11/12 03:59:19;;;;;;;3.42;3.03;;;;;21.00;99430.00;;;;2072392;28;20288;-63
2023/11/12 04:00:20;;;;;;;3.73;2.80;;;;;21.00;99429.00;;;;2072037;28;20264;-63
2023/11/12 04:01:20;;;;;;;4.50;3.23;;;;;20.90;99439.00;;;;2072360;28;20222;-63
2023/11/12 04:02:20;;;;;;;3.83;2.80;;;;;21.00;99436.00;;;;2071696;28;20637;-63
2023/11/12 04:03:22;;;;;;;4.50;3.00;;;;;21.00;99433.00;;;;2061753;28;20731;-62
2023/11/12 04:04:22;;;;;;;3.33;2.80;;;;;21.00;99434.00;;;;2070912;28;20693;-62
2023/11/12 04:05:22;;;;;;;3.60;2.87;;;;;21.00;99431.00;;;;2072253;28;20226;-62
2023/11/12 04:06:23;;;;;;;3.30;2.90;;;;;20.90;99429.00;;;;2072439;28;20233;-62
2023/11/12 04:07:23;;;;;;;3.87;2.87;;;;;20.90;99432.00;;;;2071132;28;20252;-62
2023/11/12 04:08:23;;;;;;;4.30;2.97;;;;;20.90;99425.00;;;;2062648;28;20222;-62
2023/11/12 04:09:24;;;;;;;4.37;3.07;;;;;20.90;99424.00;;;;2073923;28;20221;-62
2023/11/12 04:10:24;;;;;;;4.10;3.13;;;;;20.90;99425.00;;;;2073104;28;20250;-62
2023/11/12 04:11:24;;;;;;;4.17;2.70;;;;;20.90;99421.00;;;;2072233;28;20222;-62
2023/11/12 04:12:25;;;;;;;3.60;2.87;;;;;20.90;99424.00;;;;2072082;28;20226;-62
2023/11/12 04:13:25;;;;;;;3.03;2.67;;;;;20.90;99415.00;;;;2062809;28;20228;-62
2023/11/12 04:14:25;;;;;;;3.93;2.97;;;;;20.90;99424.00;;;;2071442;28;20222;-62
2023/11/12 04:15:26;;;;;;;5.70;3.07;;;;;20.90;99423.00;;;;2071533;28;20233;-62
2023/11/12 04:16:26;;;;;;;2.73;2.50;;;;;20.90;99426.00;;;;2071002;28;20242;-62
2023/11/12 04:17:26;;;;;;;3.73;2.83;;;;;20.90;99419.00;;;;2072354;28;20233;-62
2023/11/12 04:18:27;;;;;;;4.90;3.33;;;;;20.90;99425.00;;;;2062613;28;20222;-62
2023/11/12 04:19:27;;;;;;;4.30;2.80;;;;;20.90;99425.00;;;;2071462;28;20229;-62
2023/11/12 04:20:29;;;;;;;3.00;2.63;;;;;21.00;99424.00;;;;2072333;28;20291;-62
2023/11/12 04:21:30;;;;;;;3.60;2.85;;;;;20.90;99420.00;;;;2070926;28;20225;-62
2023/11/12 04:22:30;;;;;;;3.70;2.80;;;;;20.90;99428.00;;;;2064333;28;20623;-62
2023/11/12 04:23:30;;;;;;;2.90;2.60;;;;;20.90;99423.00;;;;2061912;28;20230;-62
2023/11/12 04:24:31;;;;;;;3.10;2.47;;;;;20.90;99423.00;;;;2079732;28;20225;-62
2023/11/12 04:25:31;;;;;;;3.37;3.07;;;;;20.90;99419.00;;;;2072150;28;20257;-62
2023/11/12 04:26:31;;;;;;;2.70;2.50;;;;;20.90;99418.00;;;;2071664;28;20237;-62
2023/11/12 04:27:32;;;;;;;4.00;2.97;;;;;20.90;99428.00;;;;2072259;28;20267;-62
2023/11/12 04:28:32;;;;;;;4.53;2.93;;;;;20.90;99427.00;;;;2060158;28;20222;-62
2023/11/12 04:29:33;;;;;;;3.30;3.00;;;;;20.80;99408.00;;;;2063089;28;20234;-62
2023/11/12 04:30:33;;;;;;;3.70;2.83;;;;;20.90;99424.00;;;;2062577;28;20270;-62
2023/11/12 04:31:35;;;;;;;2.73;2.53;;;;;20.80;99421.00;;;;2071355;28;20244;-62
2023/11/12 04:32:36;;;;;;;3.25;2.80;;;;;20.90;99429.00;;;;2072299;28;20214;-62
2023/11/12 04:33:36;;;;;;;4.27;2.90;;;;;20.90;99425.00;;;;2061641;28;20242;-62
2023/11/12 04:34:36;;;;;;;3.20;2.63;;;;;20.90;99428.00;;;;2072108;28;20464;-62
2023/11/12 04:35:37;;;;;;;4.00;2.60;;;;;20.90;99430.00;;;;2071449;28;20226;-62
2023/11/12 04:36:38;;;;;;;5.10;3.07;;;;;20.90;99431.00;;;;2072224;28;20253;-62
2023/11/12 04:37:38;;;;;;;3.87;2.83;;;;;20.80;99429.00;;;;2071346;28;20536;-62
2023/11/12 04:38:39;;;;;;;2.67;2.20;;;;;20.90;99425.00;;;;2061338;28;20217;-62
2023/11/12 04:39:40;;;;;;;4.00;2.63;;;;;20.90;99427.00;;;;2072179;28;20587;-62
2023/11/12 04:40:40;;;;;;;3.00;2.50;;;;;20.90;99437.00;;;;2071436;28;22087;-62
2023/11/12 04:41:40;;;;;;;3.23;2.80;;;;;20.90;99431.00;;;;2071781;28;20453;-62
2023/11/12 04:42:41;;;;;;;2.77;2.23;;;;;20.90;99434.00;;;;2071544;28;20295;-62
2023/11/12 04:43:41;;;;;;;3.47;2.57;;;;;20.90;99436.00;;;;2055950;28;20215;-62
2023/11/12 04:44:42;;;;;;;3.63;2.20;;;;;20.90;99433.00;;;;2071841;28;20214;-62
2023/11/12 04:45:42;;;;;;;3.80;2.73;;;;;20.90;99435.00;;;;2071495;28;20717;-62
2023/11/12 04:46:43;;;;;;;3.33;3.00;;;;;20.90;99434.00;;;;2072371;28;20692;-62
2023/11/12 04:47:44;;;;;;;3.05;2.55;;;;;20.90;99430.00;;;;2070937;28;20213;-62
2023/11/12 04:48:45;;;;;;;3.77;2.43;;;;;20.90;99427.00;;;;2061634;28;20710;-62
2023/11/12 04:49:45;;;;;;;4.13;2.63;;;;;20.90;99440.00;;;;2071337;28;20600;-62
2023/11/12 04:50:46;;;;;;;3.93;2.60;;;;;20.90;99428.00;;;;2071766;28;20256;-62
2023/11/12 04:51:46;;;;;;;3.67;2.60;;;;;20.90;99435.00;;;;2072173;28;20209;-62
2023/11/12 04:52:47;;;;;;;2.90;2.37;;;;;20.90;99437.00;;;;2065084;28;20661;-62
2023/11/12 04:53:48;;;;;;;2.80;2.53;;;;;20.80;99441.00;;;;2070556;28;20284;-62
2023/11/12 04:54:50;;;;;;;2.35;1.92;;;;;20.80;99434.00;;;;2070949;28;20291;-62
2023/11/12 04:55:50;;;;;;;3.63;3.05;;;;;20.80;99427.00;;;;2071656;28;20252;-62
2023/11/12 04:56:51;;;;;;;4.43;2.53;;;;;20.90;99440.00;;;;2071870;28;20229;-62
2023/11/12 04:57:51;;;;;;;2.77;2.23;;;;;20.90;99443.00;;;;2061994;28;20238;-62
2023/11/12 04:58:52;;;;;;;4.43;2.70;;;;;20.80;99436.00;;;;2072110;28;20217;-62
2023/11/12 04:59:53;;;;;;;3.03;2.72;;;;;20.80;99434.00;;;;2068321;28;20207;-62
2023/11/12 05:00:54;;;;;;;3.10;2.40;;;;;20.80;99435.00;;;;2067069;28;20225;-62
2023/11/12 05:01:54;;;;;;;3.40;2.67;;;;;20.80;99440.00;;;;2071294;28;20216;-62
2023/11/12 05:02:55;;;;;;;3.63;2.53;;;;;20.80;99447.00;;;;2062208;28;20214;-62